createdAt,value
2023-02-22T00:02:25.733Z,100646.09
2023-02-22T00:04:55.013Z,100647.94
2023-02-22T00:07:24.166Z,100644.59
2023-02-22T00:09:53.154Z,100641.84
2023-02-22T00:12:22.142Z,100643.61
2023-02-22T00:14:51.453Z,100644.44
2023-02-22T00:17:20.791Z,100646.53
2023-02-22T00:19:50.606Z,100645.98
2023-02-22T00:22:19.804Z,100642.62
2023-02-22T00:24:48.918Z,100644.94
2023-02-22T00:27:17.758Z,100647.80
2023-02-22T00:29:47.375Z,100648.73
2023-02-22T00:32:16.775Z,100652.73
2023-02-22T00:34:45.754Z,100658.20
2023-02-22T00:37:14.654Z,100659.25
2023-02-22T00:39:47.520Z,100665.29
2023-02-22T00:42:19.330Z,100666.84
2023-02-22T00:44:48.136Z,100671.69
2023-02-22T00:47:16.949Z,100674.63
2023-02-22T00:49:45.818Z,100679.75
2023-02-22T00:52:14.522Z,100680.23
2023-02-22T00:54:43.300Z,100683.61
2023-02-22T00:57:13.071Z,100681.05
2023-02-22T00:59:41.911Z,100678.23
2023-02-22T01:02:10.757Z,100676.59
2023-02-22T01:04:40.317Z,100677.82
2023-02-22T01:07:09.386Z,100674.83
2023-02-22T01:09:39.922Z,100676.22
2023-02-22T01:12:09.888Z,100677.94
2023-02-22T01:14:40.425Z,100680.18
2023-02-22T01:17:10.410Z,100675.44
2023-02-22T01:19:42.815Z,100688.52
2023-02-22T01:22:11.594Z,100685.84
2023-02-22T01:24:41.202Z,100686.39
2023-02-22T01:27:11.190Z,100687.74
2023-02-22T01:29:39.943Z,100686.59
2023-02-22T01:32:09.006Z,100689.08
2023-02-22T01:34:38.803Z,100687.16
2023-02-22T01:37:07.603Z,100693.77
2023-02-22T01:39:36.391Z,100690.35
2023-02-22T01:50:04.398Z,100696.85
2023-02-22T01:52:33.192Z,100697.81
2023-02-22T01:55:02.094Z,100696.16
2023-02-22T01:57:37.794Z,100699.95
2023-02-22T02:00:13.162Z,100705.67
2023-02-22T02:02:46.163Z,100706.64
2023-02-22T02:05:15.525Z,100709.52
2023-02-22T02:07:46.679Z,100711.65
2023-02-22T02:10:16.040Z,100710.30
2023-02-22T02:12:50.893Z,100710.02
2023-02-22T02:15:33.861Z,100711.50
2023-02-22T02:18:09.573Z,100715.22
2023-02-22T02:21:01.102Z,100718.78
2023-02-22T02:24:05.750Z,100721.54
2023-02-22T02:26:52.781Z,100726.06
2023-02-22T02:29:55.533Z,100725.51
2023-02-22T02:33:20.911Z,100727.02
2023-02-22T02:36:09.812Z,100731.59
2023-02-22T02:38:56.727Z,100735.09
2023-02-22T02:41:37.201Z,100741.23
2023-02-22T02:44:17.979Z,100744.98
2023-02-22T02:47:15.663Z,100746.98
2023-02-22T02:49:55.077Z,100748.64
2023-02-22T02:52:26.258Z,100749.94
2023-02-22T02:54:56.773Z,100754.84
2023-02-22T02:57:25.669Z,100754.14
2023-02-22T02:59:54.484Z,100755.83
2023-02-22T03:02:55.626Z,100763.16
2023-02-22T03:05:47.805Z,100763.16
2023-02-22T03:08:43.433Z,100771.38
2023-02-22T03:11:35.859Z,100769.67
2023-02-22T03:14:23.130Z,100770.55
2023-02-22T03:17:16.925Z,100770.45
2023-02-22T03:20:05.231Z,100773.67
2023-02-22T03:22:48.311Z,100779.17
2023-02-22T03:25:34.222Z,100783.11
2023-02-22T03:28:14.946Z,100784.93
2023-02-22T03:31:08.080Z,100786.11
2023-02-22T03:33:50.938Z,100786.08
2023-02-22T03:36:31.718Z,100784.55
2023-02-22T03:39:04.486Z,100786.80
2023-02-22T03:41:38.839Z,100789.83
2023-02-22T03:44:16.738Z,100792.33
2023-02-22T03:46:51.512Z,100795.23
2023-02-22T03:49:35.296Z,100797.13
2023-02-22T03:52:06.844Z,100799.40
2023-02-22T03:54:36.384Z,100803.23
2023-02-22T03:57:20.279Z,100807.16
2023-02-22T03:59:53.854Z,100807.14
2023-02-22T04:02:24.041Z,100811.02
2023-02-22T04:04:53.324Z,100816.00
2023-02-22T04:07:22.281Z,100818.61
2023-02-22T04:09:51.641Z,100820.64
2023-02-22T04:12:20.460Z,100821.92
2023-02-22T04:14:59.702Z,100822.39
2023-02-22T04:17:28.760Z,100823.59
2023-02-22T04:19:57.682Z,100825.70
2023-02-22T04:22:28.261Z,100827.02
2023-02-22T04:24:57.210Z,100830.54
2023-02-22T04:27:26.168Z,100833.80
2023-02-22T04:29:57.446Z,100838.10
2023-02-22T04:32:26.464Z,100836.59
2023-02-22T04:34:55.504Z,100834.88
2023-02-22T04:37:24.397Z,100834.08
2023-02-22T04:39:54.345Z,100835.89
2023-02-22T04:42:23.606Z,100840.12
2023-02-22T04:44:52.402Z,100836.52
2023-02-22T04:47:21.486Z,100835.96
2023-02-22T04:49:50.536Z,100838.48
2023-02-22T04:52:19.509Z,100831.66
2023-02-22T04:54:48.457Z,100830.97
2023-02-22T04:57:17.338Z,100834.73
2023-02-22T04:59:46.235Z,100841.31
2023-02-22T05:02:15.193Z,100846.89
2023-02-22T05:04:44.024Z,100850.55
2023-02-22T05:07:13.145Z,100858.73
2023-02-22T05:09:42.224Z,100857.92
2023-02-22T05:12:11.102Z,100860.48
2023-02-22T05:14:39.828Z,100866.18
2023-02-22T05:17:08.774Z,100870.02
2023-02-22T05:19:37.587Z,100873.02
2023-02-22T05:22:06.460Z,100878.33
2023-02-22T05:24:35.296Z,100886.44
2023-02-22T05:27:04.146Z,100890.49
2023-02-22T05:29:32.886Z,100895.40
2023-02-22T05:32:02.835Z,100898.94
2023-02-22T05:34:32.532Z,100903.58
2023-02-22T05:37:01.390Z,100902.91
2023-02-22T05:39:31.629Z,100906.10
2023-02-22T05:42:00.464Z,100902.54
2023-02-22T05:44:29.260Z,100912.21
2023-02-22T05:46:58.078Z,100908.66
2023-02-22T05:49:26.846Z,100917.40
2023-02-22T05:51:59.701Z,100922.33
2023-02-22T05:54:28.489Z,100925.03
2023-02-22T05:56:57.267Z,100929.98
2023-02-22T05:59:26.009Z,100932.42
2023-02-22T06:01:54.777Z,100934.09
2023-02-22T06:04:23.579Z,100940.86
2023-02-22T06:06:52.380Z,100943.44
2023-02-22T06:09:21.325Z,100949.39
2023-02-22T06:11:50.342Z,100954.16
2023-02-22T06:14:19.183Z,100954.54
2023-02-22T06:16:55.900Z,100958.20
2023-02-22T06:19:25.233Z,100960.65
2023-02-22T06:21:56.915Z,100962.12
2023-02-22T06:24:26.102Z,100962.38
2023-02-22T06:26:57.436Z,100967.27
2023-02-22T06:40:45.633Z,100985.42
2023-02-22T06:43:14.442Z,100987.65
2023-02-22T06:45:44.111Z,100988.57
2023-02-22T06:48:13.774Z,100988.54
2023-02-22T06:50:42.545Z,100993.71
2023-02-22T06:53:11.270Z,100992.38
2023-02-22T06:55:40.050Z,100992.41
2023-02-22T06:58:08.781Z,100989.02
2023-02-22T07:00:37.647Z,100989.86
2023-02-22T07:03:06.639Z,100995.27
2023-02-22T07:05:35.658Z,100994.89
2023-02-22T07:08:07.985Z,100998.39
2023-02-22T07:10:38.682Z,100995.56
2023-02-22T19:19:14.831Z,101304.71
2023-02-22T19:21:43.749Z,101308.73
2023-02-22T19:24:13.527Z,101307.20
2023-02-22T19:26:51.617Z,101309.26
2023-02-22T19:29:24.022Z,101315.95
2023-02-22T19:31:54.100Z,101317.52
2023-02-22T19:34:26.030Z,101313.91
2023-02-22T19:36:59.192Z,101318.38
2023-02-22T19:39:29.377Z,101319.35
2023-02-22T19:42:06.290Z,101323.65
2023-02-22T19:44:36.441Z,101319.45
2023-02-22T19:47:10.410Z,101320.59
2023-02-22T19:49:41.308Z,101317.70
2023-02-22T19:52:10.146Z,101323.84
2023-02-22T19:54:38.918Z,101328.99
2023-02-22T19:57:07.931Z,101327.93
2023-02-22T19:59:36.722Z,101321.59
2023-02-22T20:02:06.193Z,101325.26
2023-02-22T20:04:37.614Z,101330.81
2023-02-22T20:07:06.883Z,101329.30
2023-02-22T20:09:40.455Z,101327.38
2023-02-22T20:12:10.079Z,101327.46
2023-02-22T20:14:40.034Z,101333.95
2023-02-22T20:17:10.526Z,101336.95
2023-02-22T20:19:40.865Z,101336.88
2023-02-22T20:22:10.291Z,101335.98
2023-02-22T20:24:39.164Z,101334.60
2023-02-22T20:27:09.479Z,101338.63
2023-02-22T20:29:38.347Z,101339.73
2023-02-22T20:32:12.345Z,101342.23
2023-02-22T20:34:46.721Z,101337.86
2023-02-22T20:37:16.095Z,101334.69
2023-02-22T20:39:45.025Z,101337.66
2023-02-22T20:42:15.749Z,101333.32
2023-02-22T20:44:47.758Z,101341.83
2023-02-22T20:47:16.562Z,101342.55
2023-02-22T20:49:45.435Z,101345.61
2023-02-22T20:52:14.394Z,101343.33
2023-02-22T20:54:43.258Z,101348.96
2023-02-22T20:57:12.025Z,101353.46
2023-02-22T20:59:40.807Z,101346.23
2023-02-22T21:02:11.103Z,101341.30
2023-02-22T21:04:40.241Z,101341.11
2023-02-22T21:07:10.029Z,101343.48
2023-02-22T21:09:38.915Z,101346.61
2023-02-22T21:12:13.773Z,101340.94
2023-02-22T21:14:44.485Z,101343.70
2023-02-22T21:19:39.912Z,101344.58
2023-02-22T21:22:09.030Z,101345.95
2023-02-22T21:24:38.249Z,101350.41
2023-02-22T21:27:07.359Z,101351.77
2023-02-22T21:29:36.630Z,101345.93
2023-02-22T21:32:06.074Z,101344.29
2023-02-22T21:34:36.561Z,101350.88
2023-02-22T21:37:08.477Z,101356.66
2023-02-22T21:39:37.975Z,101357.57
2023-02-22T21:42:07.560Z,101353.60
2023-02-22T21:44:36.880Z,101351.90
2023-02-22T21:47:06.260Z,101357.20
2023-02-22T21:49:35.366Z,101360.61
2023-02-22T21:52:05.305Z,101358.17
2023-02-22T21:54:34.211Z,101354.39
2023-02-22T21:57:04.721Z,101353.75
2023-02-22T21:59:33.790Z,101349.33
2023-02-22T22:02:03.005Z,101350.08
2023-02-22T22:04:36.293Z,101350.46
2023-02-22T22:07:10.753Z,101352.66
2023-02-22T22:09:59.674Z,101345.63
2023-02-22T22:12:39.232Z,101346.02
2023-02-22T22:15:18.407Z,101349.38
2023-02-22T22:17:47.854Z,101340.71
2023-02-22T22:20:17.568Z,101345.80
2023-02-22T22:22:47.264Z,101350.95
2023-02-22T22:25:19.653Z,101349.56
2023-02-22T22:27:48.445Z,101348.45
2023-02-22T22:30:18.942Z,101348.93
2023-02-22T22:32:47.748Z,101350.06
2023-02-22T22:35:17.059Z,101353.46
2023-02-22T22:37:51.511Z,101353.95
2023-02-22T22:40:20.633Z,101353.66
2023-02-22T22:42:49.477Z,101358.65
2023-02-22T22:45:18.611Z,101356.60
2023-02-22T22:47:47.467Z,101355.63
2023-02-22T22:50:26.777Z,101365.39
2023-02-22T22:52:58.645Z,101372.99
2023-02-22T22:55:27.844Z,101376.64
2023-02-22T22:57:59.095Z,101376.40
2023-02-22T23:00:30.950Z,101381.80
2023-02-22T23:02:59.902Z,101386.48
2023-02-22T23:05:29.656Z,101390.45
2023-02-22T23:07:58.549Z,101387.59
2023-02-22T23:10:30.035Z,101387.17
2023-02-22T23:12:59.193Z,101388.21
2023-02-22T23:15:28.078Z,101391.10
2023-02-22T23:17:59.332Z,101387.85
2023-02-22T23:20:28.170Z,101388.95
2023-02-22T23:22:58.251Z,101391.49
2023-02-22T23:25:29.385Z,101389.40
2023-02-22T23:27:58.702Z,101397.95
2023-02-22T23:30:28.043Z,101394.32
2023-02-22T23:32:57.402Z,101393.98
2023-02-22T23:35:27.104Z,101401.71
2023-02-22T23:37:58.358Z,101402.27
2023-02-22T23:40:32.514Z,101402.11
2023-02-22T23:43:04.441Z,101386.40
2023-02-22T23:45:38.882Z,101399.66
2023-02-22T23:48:07.656Z,101399.86
2023-02-22T23:50:36.640Z,101404.58
2023-02-22T23:53:06.349Z,101404.60
2023-02-22T23:55:39.333Z,101403.93
2023-02-22T23:58:08.227Z,101405.73
